Time;durP1;ratioP1;P1;durP2;ratioP2;P2;SDS_P1;SDS_P2;PMS_P1;PMS_P2;Temp;Humidity;BMP_temperature;BMP_pressure;BME280_temperature;BME280_humidity;BME280_pressure;Samples;Min_cycle;Max_cycle;Signal;HPM_P1;HPM_P2
2023/01/27 00:00:16;;;;;;;3.20;2.77;;;4.50;99.90;;;;;;4998609;28;20232;-66
2023/01/27 00:02:43;;;;;;;4.53;2.73;;;4.50;99.90;;;;;;5029693;28;20722;-65
2023/01/27 00:05:12;;;;;;;3.00;2.40;;;4.50;99.90;;;;;;5023226;28;20228;-65
2023/01/27 00:07:44;;;;;;;2.30;2.10;;;4.60;99.90;;;;;;5036300;28;20209;-65
2023/01/27 00:10:14;;;;;;;3.83;2.77;;;4.60;99.90;;;;;;5035512;28;21074;-65
2023/01/27 00:15:28;;;;;;;2.90;2.23;;;4.60;99.90;;;;;;5001919;28;20652;-67
2023/01/27 00:17:55;;;;;;;3.77;2.10;;;4.60;99.90;;;;;;5026473;28;21063;-66
2023/01/27 00:25:49;;;;;;;4.23;2.37;;;4.60;99.90;;;;;;5046858;28;20255;-67
2023/01/27 00:28:21;;;;;;;3.63;2.20;;;4.60;99.90;;;;;;5039857;28;20221;-66
2023/01/27 00:30:50;;;;;;;4.57;1.90;;;4.60;99.90;;;;;;4993406;28;20221;-66
2023/01/27 00:33:24;;;;;;;3.50;2.20;;;4.50;99.90;;;;;;5018254;28;20217;-67
2023/01/27 00:35:57;;;;;;;2.00;1.77;;;4.60;99.90;;;;;;5023182;28;20326;-66
2023/01/27 00:38:24;;;;;;;4.40;2.17;;;4.60;99.90;;;;;;5025917;28;20766;-67
2023/01/27 00:43:31;;;;;;;2.03;1.70;;;4.60;99.90;;;;;;5048340;28;20861;-66
2023/01/27 00:46:00;;;;;;;1.93;1.70;;;4.60;99.90;;;;;;5008834;28;20240;-66
2023/01/27 00:48:27;;;;;;;2.67;1.73;;;4.60;99.90;;;;;;5004368;28;20669;-66
2023/01/27 00:50:54;;;;;;;1.93;1.73;;;4.60;99.90;;;;;;5029215;28;20216;-65
2023/01/27 00:53:20;;;;;;;2.40;1.50;;;4.60;99.90;;;;;;5031968;28;20263;-66
2023/01/27 00:55:47;;;;;;;2.00;1.73;;;4.60;99.90;;;;;;5042509;28;20211;-66
2023/01/27 00:58:14;;;;;;;4.93;2.07;;;4.60;99.90;;;;;;5045401;28;21368;-66
2023/01/27 01:00:41;;;;;;;2.00;1.80;;;4.60;99.90;;;;;;5011225;28;20228;-65
2023/01/27 01:03:09;;;;;;;6.50;1.93;;;4.60;99.90;;;;;;5020949;28;20909;-66
2023/01/27 01:05:37;;;;;;;2.07;1.73;;;4.60;99.90;;;;;;5053952;28;20197;-65
2023/01/27 01:08:04;;;;;;;1.50;1.40;;;4.60;99.90;;;;;;5007148;28;20197;-66
2023/01/27 01:10:31;;;;;;;1.80;1.70;;;4.60;99.90;;;;;;5036712;28;21271;-66
2023/01/27 01:12:58;;;;;;;3.43;1.40;;;4.60;99.90;;;;;;5034896;28;20225;-66
2023/01/27 01:15:24;;;;;;;1.57;1.40;;;4.60;99.90;;;;;;5038517;28;20893;-65
2023/01/27 01:17:51;;;;;;;1.47;1.27;;;4.60;99.90;;;;;;4989986;28;21061;-66
2023/01/27 01:20:19;;;;;;;4.80;1.40;;;4.50;99.90;;;;;;5031519;28;20240;-66
2023/01/27 01:22:46;;;;;;;2.87;1.60;;;4.60;99.90;;;;;;5035297;28;20677;-66
2023/01/27 01:25:13;;;;;;;1.40;1.30;;;4.50;99.90;;;;;;5034239;28;22575;-66
2023/01/27 01:27:40;;;;;;;1.67;1.40;;;4.60;99.90;;;;;;5037883;28;20205;-66
2023/01/27 01:30:09;;;;;;;1.57;1.47;;;4.60;99.90;;;;;;5033552;28;20231;-65
2023/01/27 01:32:35;;;;;;;0.93;0.93;;;4.50;99.90;;;;;;4990376;28;20244;-67
2023/01/27 01:35:02;;;;;;;1.40;1.30;;;4.50;99.90;;;;;;5020988;28;20221;-65
2023/01/27 01:37:30;;;;;;;1.97;1.60;;;4.50;99.90;;;;;;5026775;28;20225;-66
2023/01/27 01:39:57;;;;;;;2.27;1.40;;;4.50;99.90;;;;;;5016134;28;20257;-65
2023/01/27 01:42:24;;;;;;;2.33;1.70;;;4.50;99.90;;;;;;5021232;28;20598;-65
2023/01/27 01:45:12;;;;;;;1.40;1.30;;;4.60;99.90;;;;;;5044535;28;20679;-65
2023/01/27 01:47:40;;;;;;;2.73;1.60;;;4.60;99.90;;;;;;5013306;28;20209;-66
2023/01/27 01:50:07;;;;;;;1.90;1.57;;;4.60;99.90;;;;;;5021346;28;20666;-65
2023/01/27 01:52:34;;;;;;;3.10;1.70;;;4.50;99.90;;;;;;5029089;28;20209;-68
2023/01/27 01:55:01;;;;;;;3.77;1.50;;;4.60;99.90;;;;;;5029771;28;20201;-66
2023/01/27 01:57:33;;;;;;;1.63;1.50;;;4.50;99.90;;;;;;5042934;28;20194;-66
2023/01/27 02:00:02;;;;;;;11.87;2.20;;;4.60;99.90;;;;;;5033198;28;20206;-66
2023/01/27 02:02:29;;;;;;;2.27;1.40;;;4.50;99.90;;;;;;5041294;28;20232;-65
2023/01/27 02:05:02;;;;;;;2.53;1.70;;;4.50;99.90;;;;;;4986302;28;20669;-67
2023/01/27 02:07:34;;;;;;;2.33;1.60;;;4.50;99.90;;;;;;5045741;28;20202;-66
2023/01/27 02:10:02;;;;;;;1.80;1.57;;;4.50;99.90;;;;;;5020673;28;20204;-66
2023/01/27 02:12:29;;;;;;;2.70;1.70;;;4.50;99.90;;;;;;5050482;28;20343;-66
2023/01/27 02:14:56;;;;;;;1.77;1.50;;;4.50;99.90;;;;;;5040808;28;20208;-66
2023/01/27 02:17:23;;;;;;;4.17;1.60;;;4.50;99.90;;;;;;5027565;28;20197;-65
2023/01/27 02:19:57;;;;;;;2.70;1.70;;;4.40;99.90;;;;;;4993632;28;20209;-67
2023/01/27 02:22:39;;;;;;;3.37;1.67;;;4.50;99.90;;;;;;5031691;28;20230;-66
2023/01/27 02:25:14;;;;;;;2.27;1.63;;;4.40;99.90;;;;;;5024585;28;20205;-66
2023/01/27 02:27:42;;;;;;;1.70;1.27;;;4.40;99.90;;;;;;5043784;28;20196;-65
2023/01/27 02:30:11;;;;;;;1.57;1.40;;;4.50;99.90;;;;;;5035770;28;20208;-66
2023/01/27 02:32:37;;;;;;;1.40;1.30;;;4.40;99.90;;;;;;5033933;28;20208;-65
2023/01/27 02:35:06;;;;;;;2.23;1.50;;;4.40;99.90;;;;;;5009580;28;21123;-66
2023/01/27 02:37:33;;;;;;;2.73;1.60;;;4.40;99.90;;;;;;5032281;28;20196;-65
2023/01/27 02:40:02;;;;;;;2.97;1.30;;;4.40;99.90;;;;;;5021650;28;20237;-66
2023/01/27 02:42:29;;;;;;;2.60;1.30;;;4.40;99.90;;;;;;5038045;28;20233;-66
2023/01/27 02:44:57;;;;;;;2.63;1.67;;;4.40;99.90;;;;;;5033169;28;20204;-66
2023/01/27 02:47:24;;;;;;;3.13;1.60;;;4.40;99.90;;;;;;5043695;28;20220;-65
2023/01/27 02:49:53;;;;;;;2.17;1.50;;;4.40;99.90;;;;;;5006521;28;20252;-65
2023/01/27 02:52:20;;;;;;;4.93;1.63;;;4.40;99.90;;;;;;5019293;28;20204;-66
2023/01/27 02:54:47;;;;;;;1.53;1.43;;;4.40;99.90;;;;;;5033695;28;20189;-66
2023/01/27 02:57:13;;;;;;;1.80;1.30;;;4.30;99.90;;;;;;5026991;28;20232;-66
2023/01/27 02:59:40;;;;;;;1.30;1.20;;;4.30;99.90;;;;;;5032423;28;20204;-65
2023/01/27 03:02:11;;;;;;;1.67;1.30;;;4.30;99.90;;;;;;5040566;28;20228;-66
2023/01/27 03:04:38;;;;;;;1.27;1.10;;;4.30;99.90;;;;;;5043198;28;20193;-65
2023/01/27 03:07:05;;;;;;;1.83;1.43;;;4.30;99.90;;;;;;4996569;28;20207;-66
2023/01/27 03:09:32;;;;;;;1.40;1.30;;;4.30;99.90;;;;;;5047333;28;20201;-66
2023/01/27 03:20:13;;;;;;;1.90;1.57;;;4.10;99.90;;;;;;5023393;28;20214;-68
2023/01/27 03:22:40;;;;;;;5.47;1.37;;;4.10;99.90;;;;;;5031714;28;20230;-66
2023/01/27 03:25:08;;;;;;;1.57;1.30;;;4.10;99.90;;;;;;5045794;28;20193;-66
2023/01/27 03:27:35;;;;;;;3.20;1.47;;;4.10;99.90;;;;;;5023105;28;21034;-66
2023/01/27 03:30:02;;;;;;;1.73;1.63;;;4.10;99.90;;;;;;5040496;28;20203;-65
2023/01/27 03:32:31;;;;;;;1.43;1.20;;;4.10;99.90;;;;;;5040277;28;20197;-66
2023/01/27 03:34:59;;;;;;;2.33;1.50;;;4.00;99.90;;;;;;5039172;28;20832;-65
2023/01/27 03:48:30;;;;;;;3.23;1.23;;;3.90;99.90;;;;;;5037390;28;20212;-66
2023/01/27 03:50:58;;;;;;;2.77;1.30;;;3.90;99.90;;;;;;5051643;28;20196;-66
2023/01/27 03:53:25;;;;;;;3.57;1.60;;;3.90;99.90;;;;;;5006392;28;23541;-66
2023/01/27 03:55:52;;;;;;;2.93;1.53;;;3.90;99.90;;;;;;5048884;28;20207;-66
2023/01/27 03:58:22;;;;;;;3.00;2.03;;;3.80;99.90;;;;;;5033513;28;21175;-66
2023/01/27 04:00:51;;;;;;;2.30;1.50;;;3.80;99.90;;;;;;5039587;28;20195;-66
2023/01/27 04:08:51;;;;;;;2.77;1.53;;;3.80;99.90;;;;;;5035911;28;20208;-66
2023/01/27 04:14:02;;;;;;;5.17;1.37;;;3.80;99.90;;;;;;5033471;28;20203;-66
2023/01/27 04:16:29;;;;;;;1.53;1.43;;;3.70;99.90;;;;;;5049721;28;20200;-66
2023/01/27 04:18:56;;;;;;;1.30;1.20;;;3.70;99.90;;;;;;5043670;28;20240;-66
2023/01/27 04:21:25;;;;;;;3.10;1.47;;;3.70;99.90;;;;;;5048174;28;20283;-66
2023/01/27 04:23:52;;;;;;;2.70;1.83;;;3.70;99.90;;;;;;5000664;28;20213;-66
2023/01/27 04:26:19;;;;;;;1.87;1.53;;;3.80;99.90;;;;;;5034325;28;20201;-66
2023/01/27 04:28:46;;;;;;;2.23;1.57;;;3.80;99.90;;;;;;5050021;28;21861;-66
2023/01/27 04:31:14;;;;;;;2.40;1.60;;;3.70;99.90;;;;;;5016583;28;20208;-66
2023/01/27 04:33:41;;;;;;;4.07;1.63;;;3.80;99.90;;;;;;5032536;28;20199;-67
2023/01/27 04:36:08;;;;;;;4.63;1.60;;;3.80;99.90;;;;;;5042477;28;20200;-67
2023/01/27 04:38:36;;;;;;;1.87;1.53;;;3.70;99.90;;;;;;5016846;28;20212;-66
2023/01/27 04:41:03;;;;;;;2.33;1.80;;;3.70;99.90;;;;;;5027883;28;20201;-67
2023/01/27 04:43:30;;;;;;;2.13;1.60;;;3.70;99.90;;;;;;5045994;28;20896;-66
2023/01/27 04:45:56;;;;;;;2.47;1.67;;;3.70;99.90;;;;;;5025273;28;20689;-67
2023/01/27 04:48:23;;;;;;;2.40;1.87;;;3.70;99.90;;;;;;5042352;28;20199;-66
2023/01/27 04:50:50;;;;;;;2.50;1.90;;;3.70;99.90;;;;;;5023822;28;20232;-66
2023/01/27 04:53:17;;;;;;;2.20;1.77;;;3.80;99.90;;;;;;5045254;28;20934;-66
2023/01/27 04:55:48;;;;;;;2.10;1.60;;;3.70;99.90;;;;;;4981375;28;21372;-66
2023/01/27 04:58:16;;;;;;;2.17;1.97;;;3.70;99.90;;;;;;5036305;28;20232;-67
2023/01/27 05:00:44;;;;;;;2.10;1.90;;;3.70;99.90;;;;;;5034169;28;20421;-67
2023/01/27 05:03:11;;;;;;;2.30;2.10;;;3.70;99.90;;;;;;5031955;28;21028;-67
2023/01/27 05:05:39;;;;;;;2.33;2.00;;;3.60;99.90;;;;;;5035776;28;20201;-67
2023/01/27 05:08:07;;;;;;;4.33;2.07;;;3.70;99.90;;;;;;5036400;28;20364;-66
2023/01/27 05:10:33;;;;;;;2.07;1.73;;;3.70;99.90;;;;;;5014548;28;20267;-67
2023/01/27 05:13:02;;;;;;;2.40;1.80;;;3.70;99.90;;;;;;5037704;28;20196;-67
2023/01/27 05:15:29;;;;;;;4.37;1.80;;;3.70;99.90;;;;;;5033935;28;20207;-67
2023/01/27 05:17:56;;;;;;;2.73;2.10;;;3.70;99.90;;;;;;5012183;28;20201;-67
2023/01/27 05:20:23;;;;;;;3.83;2.00;;;3.70;99.90;;;;;;5037765;28;20203;-66
2023/01/27 05:23:33;;;;;;;2.90;1.90;;;3.70;99.90;;;;;;5028392;28;20282;-67
2023/01/27 05:25:40;;;;;;;3.73;2.13;;;3.60;99.90;;;;;;5006907;28;20225;-67
2023/01/27 05:28:08;;;;;;;2.33;1.90;;;3.60;99.90;;;;;;5039074;28;20196;-66
2023/01/27 05:30:35;;;;;;;2.87;2.07;;;3.60;99.90;;;;;;5029375;28;20680;-67
2023/01/27 05:33:02;;;;;;;2.20;1.90;;;3.60;99.90;;;;;;5041417;28;20629;-67
2023/01/27 05:35:31;;;;;;;5.07;2.43;;;3.70;99.90;;;;;;5025544;28;20213;-67
2023/01/27 05:37:58;;;;;;;2.87;1.97;;;3.60;99.90;;;;;;5033484;28;20837;-66
2023/01/27 05:40:25;;;;;;;2.93;2.17;;;4.80;99.90;;;;;;5001269;28;20244;-67
2023/01/27 05:42:52;;;;;;;2.10;1.90;;;3.60;99.90;;;;;;5044598;28;20568;-67
2023/01/27 05:45:20;;;;;;;3.20;2.40;;;3.70;99.90;;;;;;5029495;28;20201;-67
2023/01/27 05:47:49;;;;;;;3.43;2.40;;;3.70;99.90;;;;;;5036093;28;20280;-67
2023/01/27 05:50:17;;;;;;;2.80;2.47;;;3.70;99.90;;;;;;5042926;28;20778;-67
2023/01/27 05:52:44;;;;;;;2.57;2.30;;;3.70;99.90;;;;;;5014735;28;20841;-67
2023/01/27 05:55:11;;;;;;;3.30;2.70;;;3.70;99.90;;;;;;5032544;28;20216;-66
2023/01/27 05:57:38;;;;;;;3.73;2.70;;;3.70;99.90;;;;;;4985815;28;20666;-66
2023/01/27 06:00:06;;;;;;;2.63;2.07;;;3.70;99.90;;;;;;5012539;28;20220;-67
2023/01/27 06:02:34;;;;;;;4.30;2.63;;;3.70;99.90;;;;;;5016168;28;20749;-66
2023/01/27 06:05:01;;;;;;;4.50;2.53;;;3.60;99.90;;;;;;5024506;28;20879;-67
2023/01/27 06:07:28;;;;;;;7.10;2.33;;;3.70;99.90;;;;;;5023296;28;20228;-66
2023/01/27 06:09:54;;;;;;;3.53;2.50;;;3.70;99.90;;;;;;5015628;28;20947;-67
2023/01/27 06:12:21;;;;;;;3.67;2.70;;;3.70;99.90;;;;;;5011660;28;20216;-67
2023/01/27 06:14:48;;;;;;;4.37;2.70;;;3.70;99.90;;;;;;5016745;28;20202;-67
2023/01/27 06:17:15;;;;;;;4.80;2.53;;;3.70;99.90;;;;;;5026010;28;20224;-67
2023/01/27 06:19:43;;;;;;;2.50;2.30;;;3.70;99.90;;;;;;5037955;28;20662;-67
2023/01/27 06:22:10;;;;;;;3.43;2.53;;;3.70;99.90;;;;;;5044503;28;20235;-67
2023/01/27 06:24:37;;;;;;;3.37;2.47;;;3.70;99.90;;;;;;5033903;28;21005;-67
2023/01/27 06:27:03;;;;;;;3.87;2.80;;;3.70;99.90;;;;;;5043740;28;20202;-67
2023/01/27 06:29:30;;;;;;;3.60;2.73;;;3.70;99.90;;;;;;5001962;28;20208;-67
2023/01/27 06:31:57;;;;;;;4.67;2.80;;;3.70;99.90;;;;;;5030780;28;20224;-67
2023/01/27 06:34:24;;;;;;;3.03;2.40;;;3.70;99.90;;;;;;5045039;28;20201;-66
2023/01/27 06:36:54;;;;;;;4.13;2.73;;;3.70;99.90;;;;;;5021396;28;20224;-67
2023/01/27 06:39:21;;;;;;;4.17;2.90;;;3.70;99.90;;;;;;5042301;28;20235;-66
2023/01/27 06:41:49;;;;;;;4.00;3.00;;;3.70;99.90;;;;;;5029865;28;20204;-66
2023/01/27 06:44:16;;;;;;;3.63;2.70;;;3.70;99.90;;;;;;4998640;28;20236;-66
2023/01/27 06:46:43;;;;;;;2.63;2.37;;;3.70;99.90;;;;;;5031029;28;20820;-68
2023/01/27 06:49:10;;;;;;;4.07;2.63;;;3.70;99.90;;;;;;5039398;28;20287;-67
2023/01/27 06:51:37;;;;;;;3.63;2.47;;;3.70;99.90;;;;;;5046083;28;20216;-68
2023/01/27 06:54:05;;;;;;;6.40;3.13;;;3.70;99.90;;;;;;5035397;28;20676;-67
2023/01/27 06:56:32;;;;;;;2.80;2.50;;;3.70;99.90;;;;;;5033875;28;20200;-66
2023/01/27 06:58:59;;;;;;;3.17;2.80;;;3.60;99.90;;;;;;5012341;28;20218;-68
2023/01/27 07:01:26;;;;;;;3.40;2.60;;;3.60;99.90;;;;;;5033417;28;20209;-67
2023/01/27 07:03:53;;;;;;;5.00;2.80;;;3.70;99.90;;;;;;5031912;28;20637;-66
2023/01/27 07:06:20;;;;;;;3.03;2.73;;;3.70;99.90;;;;;;5036515;28;20193;-67
2023/01/27 07:08:49;;;;;;;2.73;2.40;;;3.70;99.90;;;;;;5023196;28;20202;-67
2023/01/27 07:11:17;;;;;;;3.20;2.43;;;3.70;99.90;;;;;;5022147;28;20233;-67
2023/01/27 07:13:44;;;;;;;2.97;2.37;;;3.70;99.90;;;;;;4993260;28;20903;-67
2023/01/27 07:16:11;;;;;;;3.53;2.80;;;3.70;99.90;;;;;;5025373;28;20211;-66
2023/01/27 07:18:37;;;;;;;3.27;2.60;;;3.70;99.90;;;;;;5030867;28;20256;-67
2023/01/27 07:21:05;;;;;;;5.60;3.00;;;3.70;99.90;;;;;;5042195;28;20216;-66
2023/01/27 07:23:32;;;;;;;3.37;2.80;;;3.70;99.90;;;;;;5045074;28;20235;-67
2023/01/27 07:26:01;;;;;;;2.90;2.60;;;3.70;99.90;;;;;;5028408;28;20223;-67
2023/01/27 07:28:29;;;;;;;3.50;2.80;;;3.70;99.90;;;;;;5022000;28;20312;-67
2023/01/27 07:31:01;;;;;;;4.17;2.70;;;3.70;99.90;;;;;;5008238;28;20679;-67
2023/01/27 07:33:28;;;;;;;4.10;3.00;;;3.60;99.90;;;;;;5016867;28;20216;-67
2023/01/27 07:35:54;;;;;;;4.03;2.77;;;3.70;99.90;;;;;;5037017;28;20292;-66
2023/01/27 07:38:21;;;;;;;3.93;2.80;;;3.70;99.90;;;;;;5040198;28;20189;-67
2023/01/27 07:40:48;;;;;;;3.00;2.70;;;3.70;99.90;;;;;;5023520;28;20781;-67
2023/01/27 07:43:15;;;;;;;3.10;2.60;;;3.60;99.90;;;;;;5010617;28;20220;-68
2023/01/27 07:45:47;;;;;;;3.37;2.33;;;3.70;99.90;;;;;;5014752;28;20205;-67
2023/01/27 07:48:15;;;;;;;4.33;2.73;;;3.70;99.90;;;;;;5016206;28;20200;-66
2023/01/27 07:50:42;;;;;;;3.13;2.30;;;3.70;99.90;;;;;;5041470;28;20291;-67
2023/01/27 07:53:10;;;;;;;3.63;2.33;;;3.70;99.90;;;;;;5039373;28;20190;-66
2023/01/27 07:55:37;;;;;;;4.03;2.70;;;3.70;99.90;;;;;;5041908;28;20204;-66
2023/01/27 07:58:04;;;;;;;4.47;2.80;;;3.70;99.90;;;;;;5019628;28;20212;-66
2023/01/27 08:00:31;;;;;;;3.00;2.40;;;3.70;99.90;;;;;;5023379;28;23429;-66
2023/01/27 08:03:01;;;;;;;3.27;2.77;;;3.70;99.90;;;;;;4989493;28;20220;-67
2023/01/27 08:05:29;;;;;;;2.63;2.07;;;3.70;99.90;;;;;;5021732;28;20259;-67
2023/01/27 08:07:57;;;;;;;3.00;2.50;;;3.70;99.90;;;;;;5039959;28;20216;-66
2023/01/27 08:10:24;;;;;;;5.13;2.20;;;3.70;99.90;;;;;;5035445;28;20203;-66
2023/01/27 08:12:51;;;;;;;4.00;2.20;;;3.80;99.90;;;;;;5020239;28;20704;-67
2023/01/27 08:15:18;;;;;;;3.50;2.10;;;3.70;99.90;;;;;;5029940;28;20239;-66
2023/01/27 08:17:44;;;;;;;3.07;2.27;;;3.70;99.90;;;;;;4991717;28;20213;-66
2023/01/27 08:20:13;;;;;;;2.83;2.30;;;3.80;99.90;;;;;;5016699;28;20223;-66
2023/01/27 08:22:41;;;;;;;2.53;1.97;;;3.70;99.90;;;;;;5028499;28;20948;-67
2023/01/27 08:25:09;;;;;;;3.47;2.30;;;3.80;99.90;;;;;;5040467;28;20897;-67
2023/01/27 08:27:36;;;;;;;2.83;2.10;;;3.70;99.90;;;;;;5006764;28;20718;-67
2023/01/27 08:30:02;;;;;;;3.57;2.17;;;3.80;99.90;;;;;;5020767;28;20228;-67
2023/01/27 08:32:29;;;;;;;2.70;1.90;;;3.80;99.90;;;;;;4980799;28;21143;-67
2023/01/27 08:34:56;;;;;;;2.30;2.10;;;3.80;99.90;;;;;;5022446;28;20231;-66
2023/01/27 08:37:24;;;;;;;2.03;1.83;;;3.80;99.90;;;;;;5020680;28;20216;-67
2023/01/27 08:39:51;;;;;;;2.47;1.90;;;3.80;99.90;;;;;;5035460;28;20235;-66
2023/01/27 08:42:18;;;;;;;4.20;1.93;;;3.80;99.90;;;;;;5041427;28;20220;-67
2023/01/27 08:44:45;;;;;;;1.77;1.67;;;3.90;99.90;;;;;;5038296;28;20992;-67
2023/01/27 08:47:11;;;;;;;2.60;1.63;;;3.90;99.90;;;;;;5027131;28;20927;-67
2023/01/27 08:49:38;;;;;;;3.27;1.70;;;3.90;99.90;;;;;;4997872;28;20598;-67
2023/01/27 08:52:05;;;;;;;1.90;1.70;;;3.90;99.90;;;;;;5041488;28;20890;-67
2023/01/27 08:54:33;;;;;;;2.00;1.80;;;3.90;99.90;;;;;;5027889;28;20228;-67
2023/01/27 08:57:00;;;;;;;2.00;1.50;;;3.80;99.90;;;;;;5029797;28;20815;-67
2023/01/27 08:59:27;;;;;;;2.60;1.73;;;3.80;99.90;;;;;;5028182;28;20308;-66
2023/01/27 09:01:53;;;;;;;1.63;1.53;;;3.80;99.90;;;;;;5029160;28;20240;-67
2023/01/27 09:04:21;;;;;;;2.07;1.77;;;3.90;99.90;;;;;;5006444;28;20721;-67
2023/01/27 09:06:49;;;;;;;2.37;1.90;;;3.90;99.90;;;;;;5033729;28;20209;-67
2023/01/27 09:09:16;;;;;;;1.90;1.70;;;3.90;99.90;;;;;;5030398;28;20793;-67
2023/01/27 09:11:46;;;;;;;2.13;1.50;;;4.00;99.90;;;;;;5039499;28;20225;-67
2023/01/27 09:14:13;;;;;;;3.77;1.83;;;4.00;99.90;;;;;;5031152;28;20232;-67
2023/01/27 09:16:40;;;;;;;3.50;1.57;;;4.00;99.90;;;;;;5029961;28;20229;-67
2023/01/27 09:19:07;;;;;;;2.43;1.60;;;3.90;99.90;;;;;;5031910;28;20228;-67
2023/01/27 09:21:34;;;;;;;2.70;1.53;;;3.90;99.90;;;;;;5014512;28;20253;-67
2023/01/27 09:24:01;;;;;;;6.43;2.00;;;4.00;99.90;;;;;;5040428;28;20892;-67
2023/01/27 09:26:27;;;;;;;1.87;1.70;;;4.00;99.90;;;;;;5024824;28;21043;-67
2023/01/27 09:28:56;;;;;;;3.00;1.77;;;4.10;99.90;;;;;;5046886;28;20283;-67
2023/01/27 09:31:23;;;;;;;2.70;2.17;;;4.00;99.90;;;;;;5016294;28;20867;-67
2023/01/27 09:33:50;;;;;;;2.10;1.80;;;4.10;99.90;;;;;;5036503;28;20728;-67
2023/01/27 09:36:20;;;;;;;3.10;1.80;;;4.10;99.90;;;;;;5008712;28;20232;-65
2023/01/27 09:38:51;;;;;;;2.53;2.03;;;4.00;99.90;;;;;;5014926;28;20239;-68
2023/01/27 09:41:38;;;;;;;3.37;2.30;;;4.00;99.90;;;;;;5026962;28;20227;-66
2023/01/27 09:44:26;;;;;;;2.77;2.20;;;4.00;99.90;;;;;;5028516;28;20239;-66
2023/01/27 09:47:08;;;;;;;2.50;2.30;;;4.00;99.90;;;;;;5039904;28;20224;-65
2023/01/27 09:50:00;;;;;;;2.47;2.10;;;4.00;99.90;;;;;;5050101;28;20291;-64
2023/01/27 09:52:56;;;;;;;2.97;2.50;;;4.00;99.90;;;;;;5019986;28;20232;-65
2023/01/27 09:55:30;;;;;;;2.00;1.80;;;4.00;99.90;;;;;;5027212;28;22783;-66
2023/01/27 09:58:04;;;;;;;3.17;2.13;;;4.00;99.90;;;;;;5031940;28;20241;-65
2023/01/27 10:00:42;;;;;;;3.00;2.40;;;4.00;99.90;;;;;;5033150;28;20205;-66
2023/01/27 10:03:31;;;;;;;3.30;1.80;;;4.00;99.90;;;;;;5030214;28;20215;-66
2023/01/27 10:06:25;;;;;;;3.90;2.20;;;3.90;99.90;;;;;;5033906;28;20195;-66
2023/01/27 10:09:27;;;;;;;2.60;1.70;;;3.90;99.90;;;;;;5020120;28;20211;-65
2023/01/27 10:11:59;;;;;;;1.73;1.63;;;3.90;99.90;;;;;;5034139;28;20801;-65
2023/01/27 10:14:37;;;;;;;2.77;2.07;;;3.90;99.90;;;;;;5021500;28;20208;-66
2023/01/27 10:17:23;;;;;;;2.37;1.87;;;3.90;99.90;;;;;;5010509;28;20874;-66
2023/01/27 10:20:02;;;;;;;1.60;1.50;;;3.90;99.90;;;;;;5016242;28;20232;-65
2023/01/27 10:22:38;;;;;;;2.03;1.83;;;3.90;99.90;;;;;;5000378;28;20212;-65
2023/01/27 10:25:20;;;;;;;5.00;1.97;;;3.90;99.90;;;;;;5016798;28;20229;-65
2023/01/27 10:27:50;;;;;;;2.20;2.00;;;3.90;99.90;;;;;;5036173;28;20208;-66
2023/01/27 10:30:25;;;;;;;2.13;1.73;;;4.00;99.90;;;;;;5025268;28;20224;-65
2023/01/27 10:33:01;;;;;;;2.43;1.70;;;3.90;99.90;;;;;;5023943;28;20227;-66
2023/01/27 10:35:34;;;;;;;2.83;1.90;;;3.90;99.90;;;;;;5019614;28;20240;-65
2023/01/27 10:38:12;;;;;;;2.50;2.23;;;4.00;99.90;;;;;;4994836;28;20869;-66
2023/01/27 10:40:47;;;;;;;1.83;1.63;;;4.10;99.90;;;;;;5006568;28;20256;-66
2023/01/27 10:43:25;;;;;;;1.80;1.67;;;4.10;99.90;;;;;;5036847;28;20197;-65
2023/01/27 10:45:58;;;;;;;1.83;1.73;;;4.00;99.90;;;;;;5022688;28;20215;-66
2023/01/27 10:48:36;;;;;;;2.50;1.80;;;4.10;99.90;;;;;;5028208;28;21080;-66
2023/01/27 10:51:09;;;;;;;2.30;1.40;;;4.10;99.90;;;;;;4996286;28;21172;-66
2023/01/27 10:53:43;;;;;;;1.77;1.30;;;4.10;99.90;;;;;;5006347;28;20208;-65
2023/01/27 10:56:15;;;;;;;1.63;1.43;;;4.00;99.90;;;;;;4997013;28;20196;-65
2023/01/27 10:58:51;;;;;;;2.10;1.60;;;4.00;99.90;;;;;;5012583;28;20208;-65
2023/01/27 11:01:28;;;;;;;1.50;1.33;;;4.00;99.90;;;;;;5021696;28;20203;-64
2023/01/27 11:04:00;;;;;;;2.00;1.80;;;4.10;99.90;;;;;;5016106;28;20247;-65
2023/01/27 11:06:30;;;;;;;1.90;1.50;;;4.10;99.90;;;;;;5010926;28;21117;-66
2023/01/27 11:09:06;;;;;;;2.13;1.50;;;4.10;99.90;;;;;;5000535;28;20205;-65
2023/01/27 11:11:48;;;;;;;2.00;1.67;;;4.20;99.90;;;;;;5019439;28;20207;-65
2023/01/27 11:14:23;;;;;;;2.97;1.40;;;4.10;99.90;;;;;;5002161;28;20259;-66
2023/01/27 11:16:52;;;;;;;1.37;1.27;;;4.10;99.90;;;;;;5025020;28;20197;-66
2023/01/27 11:19:32;;;;;;;3.23;1.60;;;4.10;99.90;;;;;;5005767;28;20220;-66
2023/01/27 11:22:02;;;;;;;1.53;1.30;;;4.10;99.90;;;;;;5009535;28;20800;-66
2023/01/27 11:24:38;;;;;;;1.73;1.30;;;4.10;99.90;;;;;;4988684;28;20236;-66
2023/01/27 11:27:13;;;;;;;2.50;1.20;;;4.10;99.90;;;;;;5014171;28;20236;-66
2023/01/27 11:29:47;;;;;;;3.40;1.20;;;4.10;99.90;;;;;;5031486;28;20200;-65
2023/01/27 11:32:26;;;;;;;1.13;1.03;;;4.10;99.90;;;;;;5017983;28;20225;-67
2023/01/27 11:35:03;;;;;;;1.77;1.00;;;4.20;99.90;;;;;;5021813;28;20208;-66
2023/01/27 11:37:34;;;;;;;1.03;0.87;;;4.30;99.90;;;;;;5015462;28;20216;-66
2023/01/27 11:40:01;;;;;;;1.70;0.97;;;4.20;99.90;;;;;;5013323;28;20754;-66
2023/01/27 11:42:34;;;;;;;2.60;1.37;;;4.20;99.90;;;;;;5047559;28;20216;-65
2023/01/27 11:45:02;;;;;;;1.10;1.00;;;4.10;99.90;;;;;;5042686;28;20225;-66
2023/01/27 11:47:31;;;;;;;1.13;1.00;;;4.20;99.90;;;;;;5042175;28;20216;-66
2023/01/27 11:50:01;;;;;;;1.00;1.00;;;4.10;99.90;;;;;;5013623;28;20239;-67
2023/01/27 11:52:28;;;;;;;1.73;0.83;;;4.10;99.90;;;;;;5015143;28;20241;-66
2023/01/27 11:55:03;;;;;;;1.47;1.37;;;4.10;99.90;;;;;;5013181;28;20212;-66
2023/01/27 11:57:30;;;;;;;3.20;1.20;;;4.10;99.90;;;;;;5041300;28;20200;-66
2023/01/27 12:00:01;;;;;;;1.27;1.00;;;4.10;99.90;;;;;;5040051;28;20663;-67
2023/01/27 12:02:35;;;;;;;0.80;0.80;;;4.10;99.90;;;;;;5038443;28;21012;-66
2023/01/27 12:05:07;;;;;;;0.67;0.67;;;4.10;99.90;;;;;;4988280;28;20233;-67
2023/01/27 12:07:43;;;;;;;0.57;0.57;;;4.20;99.90;;;;;;5022025;28;20509;-66
2023/01/27 12:10:26;;;;;;;1.00;0.80;;;4.10;99.90;;;;;;5000437;28;20216;-66
2023/01/27 12:12:53;;;;;;;1.53;0.80;;;4.10;99.90;;;;;;5050326;28;20205;-66
2023/01/27 12:15:20;;;;;;;0.93;0.90;;;4.10;99.90;;;;;;5041120;28;20570;-66
2023/01/27 12:17:50;;;;;;;0.90;0.90;;;4.10;99.90;;;;;;5047346;28;20203;-66
2023/01/27 12:20:36;;;;;;;0.67;0.67;;;4.10;99.90;;;;;;5028207;28;20232;-65
2023/01/27 12:23:15;;;;;;;1.67;1.10;;;4.10;99.90;;;;;;5025219;28;20225;-66
2023/01/27 12:25:45;;;;;;;1.23;1.10;;;4.10;99.90;;;;;;5007187;28;20236;-66
2023/01/27 12:28:25;;;;;;;1.00;0.87;;;4.10;99.90;;;;;;5040219;28;20224;-66
2023/01/27 12:30:54;;;;;;;1.20;1.10;;;4.10;99.90;;;;;;5035918;28;20817;-66
2023/01/27 12:33:25;;;;;;;1.10;1.00;;;4.10;99.90;;;;;;5035261;28;20197;-65
2023/01/27 12:35:57;;;;;;;1.00;0.90;;;4.10;99.90;;;;;;5012917;28;21092;-67
2023/01/27 12:38:26;;;;;;;0.90;0.73;;;4.10;99.90;;;;;;5033205;28;20220;-65
2023/01/27 12:40:59;;;;;;;0.83;0.83;;;4.00;99.90;;;;;;4993444;28;20225;-67
2023/01/27 12:43:25;;;;;;;1.13;0.90;;;4.00;99.90;;;;;;5012900;28;20218;-67
2023/01/27 12:46:19;;;;;;;0.90;0.90;;;4.10;99.90;;;;;;5036958;28;20224;-66
2023/01/27 12:48:49;;;;;;;3.53;0.80;;;4.00;99.90;;;;;;5023350;28;20232;-66
2023/01/27 12:51:21;;;;;;;0.90;0.90;;;4.00;99.90;;;;;;5013440;28;20834;-66
2023/01/27 12:53:49;;;;;;;1.27;1.00;;;4.00;99.90;;;;;;5035168;28;20208;-66
2023/01/27 12:56:19;;;;;;;1.53;0.83;;;4.00;99.90;;;;;;4985474;28;20225;-67
2023/01/27 12:58:55;;;;;;;1.60;1.17;;;4.00;99.90;;;;;;5012048;28;20228;-66
2023/01/27 13:01:26;;;;;;;1.00;0.90;;;4.00;99.90;;;;;;5028413;28;20217;-66
2023/01/27 13:03:56;;;;;;;1.20;1.03;;;4.00;99.90;;;;;;5014527;28;20225;-65
2023/01/27 13:06:33;;;;;;;2.20;1.10;;;4.10;99.90;;;;;;5013222;28;20305;-65
2023/01/27 13:09:01;;;;;;;1.17;1.07;;;4.00;99.90;;;;;;5040709;28;20230;-65
2023/01/27 13:11:37;;;;;;;1.00;0.90;;;4.10;99.90;;;;;;5004652;28;20239;-66
2023/01/27 13:14:07;;;;;;;1.10;0.93;;;4.10;99.90;;;;;;5030464;28;20209;-66
2023/01/27 13:16:34;;;;;;;0.93;0.83;;;4.10;99.90;;;;;;5040186;28;20213;-66
2023/01/27 13:19:01;;;;;;;6.67;3.50;;;4.10;99.90;;;;;;5015328;28;20217;-65
2023/01/27 13:21:35;;;;;;;3.10;2.50;;;4.10;99.90;;;;;;5018066;28;20228;-66
2023/01/27 13:24:05;;;;;;;2.73;2.47;;;4.10;99.90;;;;;;5035330;28;20231;-65
2023/01/27 13:26:36;;;;;;;4.47;1.90;;;4.10;99.90;;;;;;5017829;28;20224;-65
2023/01/27 13:29:10;;;;;;;1.70;1.60;;;4.10;99.90;;;;;;5006088;28;20209;-64
2023/01/27 13:31:43;;;;;;;1.73;1.53;;;4.20;99.90;;;;;;5033794;28;20212;-66
2023/01/27 13:34:21;;;;;;;2.70;2.50;;;4.10;99.90;;;;;;5026312;28;20211;-67
2023/01/27 13:36:55;;;;;;;2.93;2.00;;;4.20;99.90;;;;;;5020445;28;20263;-65
2023/01/27 13:39:28;;;;;;;3.10;2.80;;;4.10;99.90;;;;;;5016561;28;20984;-65
2023/01/27 13:42:09;;;;;;;1.90;1.80;;;4.10;99.90;;;;;;5020525;28;20206;-66
2023/01/27 13:44:40;;;;;;;14.70;5.83;;;4.00;99.90;;;;;;5000173;28;20256;-66
2023/01/27 13:47:14;;;;;;;5.17;2.33;;;4.00;99.90;;;;;;5021996;28;20200;-66
2023/01/27 13:49:45;;;;;;;9.40;4.77;;;4.00;99.90;;;;;;5020959;28;20221;-66